sensor_id;sensor_type;location;lat;lon;timestamp;temperature;humidity
28177;DHT22;15461;41.652;9.378;2023-11-19T00:00:45;12.00;99.90
28177;DHT22;15461;41.652;9.378;2023-11-19T00:03:11;11.90;99.90
28177;DHT22;15461;41.652;9.378;2023-11-19T00:05:39;11.90;99.90
28177;DHT22;15461;41.652;9.378;2023-11-19T00:08:04;11.80;99.90
28177;DHT22;15461;41.652;9.378;2023-11-19T00:10:31;11.80;99.90
28177;DHT22;15461;41.652;9.378;2023-11-19T00:12:57;11.70;99.90
28177;DHT22;15461;41.652;9.378;2023-11-19T00:15:23;11.70;99.90
28177;DHT22;15461;41.652;9.378;2023-11-19T00:17:50;11.60;99.90
28177;DHT22;15461;41.652;9.378;2023-11-19T00:20:17;11.60;99.90
28177;DHT22;15461;41.652;9.378;2023-11-19T00:22:43;11.50;99.90
28177;DHT22;15461;41.652;9.378;2023-11-19T00:25:09;11.50;99.90
28177;DHT22;15461;41.652;9.378;2023-11-19T00:27:36;11.50;99.90
28177;DHT22;15461;41.652;9.378;2023-11-19T00:30:06;11.50;99.90
28177;DHT22;15461;41.652;9.378;2023-11-19T00:32:33;11.40;99.90
28177;DHT22;15461;41.652;9.378;2023-11-19T00:34:59;11.40;99.90
28177;DHT22;15461;41.652;9.378;2023-11-19T00:37:25;11.30;99.90
28177;DHT22;15461;41.652;9.378;2023-11-19T00:39:52;11.30;99.90
28177;DHT22;15461;41.652;9.378;2023-11-19T00:42:18;11.30;99.90
28177;DHT22;15461;41.652;9.378;2023-11-19T00:44:43;11.20;99.90
28177;DHT22;15461;41.652;9.378;2023-11-19T00:47:09;11.20;99.90
28177;DHT22;15461;41.652;9.378;2023-11-19T00:49:35;11.10;99.90
28177;DHT22;15461;41.652;9.378;2023-11-19T00:52:01;11.10;99.90
28177;DHT22;15461;41.652;9.378;2023-11-19T00:54:27;11.10;99.90
28177;DHT22;15461;41.652;9.378;2023-11-19T00:56:53;11.10;99.90
28177;DHT22;15461;41.652;9.378;2023-11-19T00:59:21;11.10;99.90
28177;DHT22;15461;41.652;9.378;2023-11-19T01:01:46;11.00;99.90
28177;DHT22;15461;41.652;9.378;2023-11-19T01:04:17;11.00;99.90
28177;DHT22;15461;41.652;9.378;2023-11-19T01:06:43;11.00;99.90
28177;DHT22;15461;41.652;9.378;2023-11-19T01:09:09;10.90;99.90
28177;DHT22;15461;41.652;9.378;2023-11-19T01:11:35;10.90;99.90
28177;DHT22;15461;41.652;9.378;2023-11-19T01:14:01;10.90;99.90
28177;DHT22;15461;41.652;9.378;2023-11-19T01:16:27;10.80;99.90
28177;DHT22;15461;41.652;9.378;2023-11-19T01:18:53;10.80;99.90
28177;DHT22;15461;41.652;9.378;2023-11-19T01:21:19;10.80;99.90
28177;DHT22;15461;41.652;9.378;2023-11-19T01:23:44;10.70;99.90
28177;DHT22;15461;41.652;9.378;2023-11-19T01:26:14;10.70;99.90
28177;DHT22;15461;41.652;9.378;2023-11-19T01:28:40;10.70;99.90
28177;DHT22;15461;41.652;9.378;2023-11-19T01:31:08;10.60;99.90
28177;DHT22;15461;41.652;9.378;2023-11-19T01:33:38;10.60;99.90
28177;DHT22;15461;41.652;9.378;2023-11-19T01:36:05;10.50;99.90
28177;DHT22;15461;41.652;9.378;2023-11-19T01:38:31;10.50;99.90
28177;DHT22;15461;41.652;9.378;2023-11-19T01:40:57;10.50;99.90
28177;DHT22;15461;41.652;9.378;2023-11-19T01:43:37;10.40;99.90
28177;DHT22;15461;41.652;9.378;2023-11-19T01:46:05;10.40;99.90
28177;DHT22;15461;41.652;9.378;2023-11-19T01:48:33;10.40;99.90
28177;DHT22;15461;41.652;9.378;2023-11-19T01:51:01;10.40;99.90
28177;DHT22;15461;41.652;9.378;2023-11-19T01:53:27;10.40;99.90
28177;DHT22;15461;41.652;9.378;2023-11-19T01:55:55;10.40;99.90
28177;DHT22;15461;41.652;9.378;2023-11-19T01:58:23;10.40;99.90
28177;DHT22;15461;41.652;9.378;2023-11-19T02:00:49;10.40;99.90
28177;DHT22;15461;41.652;9.378;2023-11-19T02:03:15;10.40;99.90
28177;DHT22;15461;41.652;9.378;2023-11-19T02:05:42;10.40;99.90
28177;DHT22;15461;41.652;9.378;2023-11-19T02:08:08;10.40;99.90
28177;DHT22;15461;41.652;9.378;2023-11-19T02:10:34;10.40;99.90
28177;DHT22;15461;41.652;9.378;2023-11-19T02:13:01;10.40;99.90
28177;DHT22;15461;41.652;9.378;2023-11-19T02:15:26;10.40;99.90
28177;DHT22;15461;41.652;9.378;2023-11-19T02:17:52;10.40;99.90
28177;DHT22;15461;41.652;9.378;2023-11-19T02:20:18;10.40;99.90
28177;DHT22;15461;41.652;9.378;2023-11-19T02:22:46;10.40;99.90
28177;DHT22;15461;41.652;9.378;2023-11-19T02:25:32;10.40;99.90
28177;DHT22;15461;41.652;9.378;2023-11-19T02:27:59;10.40;99.90
28177;DHT22;15461;41.652;9.378;2023-11-19T02:30:26;10.40;99.90
28177;DHT22;15461;41.652;9.378;2023-11-19T02:32:58;10.40;99.90
28177;DHT22;15461;41.652;9.378;2023-11-19T02:35:27;10.40;99.90
28177;DHT22;15461;41.652;9.378;2023-11-19T02:37:56;10.40;99.90
28177;DHT22;15461;41.652;9.378;2023-11-19T02:40:23;10.40;99.90
28177;DHT22;15461;41.652;9.378;2023-11-19T02:42:50;10.40;99.90
28177;DHT22;15461;41.652;9.378;2023-11-19T02:45:16;10.40;99.90
28177;DHT22;15461;41.652;9.378;2023-11-19T02:47:43;10.40;99.90
28177;DHT22;15461;41.652;9.378;2023-11-19T02:50:11;10.40;99.90
28177;DHT22;15461;41.652;9.378;2023-11-19T02:52:44;10.40;99.90
28177;DHT22;15461;41.652;9.378;2023-11-19T02:55:12;10.40;99.90
28177;DHT22;15461;41.652;9.378;2023-11-19T02:57:41;10.30;99.90
28177;DHT22;15461;41.652;9.378;2023-11-19T03:00:17;10.30;99.90
28177;DHT22;15461;41.652;9.378;2023-11-19T03:02:47;10.30;99.90
28177;DHT22;15461;41.652;9.378;2023-11-19T03:05:14;10.20;99.90
28177;DHT22;15461;41.652;9.378;2023-11-19T03:07:41;10.20;99.90
28177;DHT22;15461;41.652;9.378;2023-11-19T03:10:11;10.20;99.90
28177;DHT22;15461;41.652;9.378;2023-11-19T03:12:44;10.20;99.90
28177;DHT22;15461;41.652;9.378;2023-11-19T03:15:11;10.20;99.90
28177;DHT22;15461;41.652;9.378;2023-11-19T03:17:41;10.20;99.90
28177;DHT22;15461;41.652;9.378;2023-11-19T03:20:11;10.10;99.90
28177;DHT22;15461;41.652;9.378;2023-11-19T03:22:40;10.10;99.90
28177;DHT22;15461;41.652;9.378;2023-11-19T03:25:08;10.10;99.90
28177;DHT22;15461;41.652;9.378;2023-11-19T03:27:37;10.00;99.90
28177;DHT22;15461;41.652;9.378;2023-11-19T03:30:05;10.00;99.90
28177;DHT22;15461;41.652;9.378;2023-11-19T03:32:32;10.00;99.90
28177;DHT22;15461;41.652;9.378;2023-11-19T03:34:58;10.00;99.90
28177;DHT22;15461;41.652;9.378;2023-11-19T03:37:26;9.90;99.90
28177;DHT22;15461;41.652;9.378;2023-11-19T03:39:53;9.90;99.90
28177;DHT22;15461;41.652;9.378;2023-11-19T03:42:20;9.90;99.90
28177;DHT22;15461;41.652;9.378;2023-11-19T03:44:47;9.90;99.90
28177;DHT22;15461;41.652;9.378;2023-11-19T03:47:16;9.90;99.90
28177;DHT22;15461;41.652;9.378;2023-11-19T03:49:41;9.90;99.90
28177;DHT22;15461;41.652;9.378;2023-11-19T03:52:07;9.80;99.90
28177;DHT22;15461;41.652;9.378;2023-11-19T03:54:34;9.90;99.90
28177;DHT22;15461;41.652;9.378;2023-11-19T03:57:01;9.90;99.90
28177;DHT22;15461;41.652;9.378;2023-11-19T03:59:29;9.80;99.90
28177;DHT22;15461;41.652;9.378;2023-11-19T04:01:54;9.80;99.90
28177;DHT22;15461;41.652;9.378;2023-11-19T04:04:22;9.80;99.90
28177;DHT22;15461;41.652;9.378;2023-11-19T04:06:48;9.80;99.90
28177;DHT22;15461;41.652;9.378;2023-11-19T04:09:14;9.80;99.90
28177;DHT22;15461;41.652;9.378;2023-11-19T04:11:40;9.80;99.90
28177;DHT22;15461;41.652;9.378;2023-11-19T04:14:06;9.70;99.90
28177;DHT22;15461;41.652;9.378;2023-11-19T04:16:31;9.70;99.90
28177;DHT22;15461;41.652;9.378;2023-11-19T04:18:57;9.70;99.90
28177;DHT22;15461;41.652;9.378;2023-11-19T04:21:24;9.70;99.90
28177;DHT22;15461;41.652;9.378;2023-11-19T04:23:51;9.70;99.90
28177;DHT22;15461;41.652;9.378;2023-11-19T04:26:17;9.70;99.90
28177;DHT22;15461;41.652;9.378;2023-11-19T04:28:42;9.70;99.90
28177;DHT22;15461;41.652;9.378;2023-11-19T04:31:08;9.70;99.90
28177;DHT22;15461;41.652;9.378;2023-11-19T04:33:35;9.60;99.90
28177;DHT22;15461;41.652;9.378;2023-11-19T04:36:00;9.60;99.90
28177;DHT22;15461;41.652;9.378;2023-11-19T04:38:27;9.60;99.90
28177;DHT22;15461;41.652;9.378;2023-11-19T04:40:53;9.60;99.90
28177;DHT22;15461;41.652;9.378;2023-11-19T04:43:19;9.60;99.90
28177;DHT22;15461;41.652;9.378;2023-11-19T04:45:45;9.50;99.90
28177;DHT22;15461;41.652;9.378;2023-11-19T04:48:11;9.50;99.90
28177;DHT22;15461;41.652;9.378;2023-11-19T04:50:38;9.50;99.90
28177;DHT22;15461;41.652;9.378;2023-11-19T04:53:03;9.50;99.90
28177;DHT22;15461;41.652;9.378;2023-11-19T04:55:30;9.50;99.90
28177;DHT22;15461;41.652;9.378;2023-11-19T04:57:55;9.40;99.90
28177;DHT22;15461;41.652;9.378;2023-11-19T05:00:21;9.40;99.90
28177;DHT22;15461;41.652;9.378;2023-11-19T05:02:47;9.40;99.90
28177;DHT22;15461;41.652;9.378;2023-11-19T05:05:13;9.40;99.90
28177;DHT22;15461;41.652;9.378;2023-11-19T05:07:40;9.50;99.90
28177;DHT22;15461;41.652;9.378;2023-11-19T05:10:06;9.40;99.90
28177;DHT22;15461;41.652;9.378;2023-11-19T05:12:32;9.50;99.90
28177;DHT22;15461;41.652;9.378;2023-11-19T05:14:58;9.50;99.90
28177;DHT22;15461;41.652;9.378;2023-11-19T05:17:24;9.40;99.90
28177;DHT22;15461;41.652;9.378;2023-11-19T05:19:50;9.40;99.90
28177;DHT22;15461;41.652;9.378;2023-11-19T05:22:15;9.40;99.90
28177;DHT22;15461;41.652;9.378;2023-11-19T05:24:41;9.50;99.90
28177;DHT22;15461;41.652;9.378;2023-11-19T05:27:07;9.50;99.90
28177;DHT22;15461;41.652;9.378;2023-11-19T05:29:33;9.50;99.90
28177;DHT22;15461;41.652;9.378;2023-11-19T05:31:59;9.50;99.90
28177;DHT22;15461;41.652;9.378;2023-11-19T05:34:25;9.40;99.90
28177;DHT22;15461;41.652;9.378;2023-11-19T05:36:51;9.50;99.90
28177;DHT22;15461;41.652;9.378;2023-11-19T05:39:17;9.50;99.90
28177;DHT22;15461;41.652;9.378;2023-11-19T05:41:44;9.50;99.90
28177;DHT22;15461;41.652;9.378;2023-11-19T05:44:10;9.50;99.90
28177;DHT22;15461;41.652;9.378;2023-11-19T05:46:36;9.50;99.90
28177;DHT22;15461;41.652;9.378;2023-11-19T05:49:06;9.50;99.90
28177;DHT22;15461;41.652;9.378;2023-11-19T05:51:31;9.50;99.90
28177;DHT22;15461;41.652;9.378;2023-11-19T05:53:57;9.50;99.90
28177;DHT22;15461;41.652;9.378;2023-11-19T05:56:23;9.50;99.90
28177;DHT22;15461;41.652;9.378;2023-11-19T05:58:49;9.50;99.90
28177;DHT22;15461;41.652;9.378;2023-11-19T06:01:15;9.50;99.90
28177;DHT22;15461;41.652;9.378;2023-11-19T06:03:41;9.50;99.90
28177;DHT22;15461;41.652;9.378;2023-11-19T06:06:08;9.50;99.90
28177;DHT22;15461;41.652;9.378;2023-11-19T06:08:35;9.50;99.90
28177;DHT22;15461;41.652;9.378;2023-11-19T06:11:01;9.50;99.90
28177;DHT22;15461;41.652;9.378;2023-11-19T06:13:27;9.50;99.90
28177;DHT22;15461;41.652;9.378;2023-11-19T06:15:52;9.50;99.90
28177;DHT22;15461;41.652;9.378;2023-11-19T06:18:18;9.50;99.90
28177;DHT22;15461;41.652;9.378;2023-11-19T06:20:45;9.50;99.90
28177;DHT22;15461;41.652;9.378;2023-11-19T06:23:11;9.50;99.90
28177;DHT22;15461;41.652;9.378;2023-11-19T06:25:37;9.50;99.90
28177;DHT22;15461;41.652;9.378;2023-11-19T06:28:03;9.50;99.90
28177;DHT22;15461;41.652;9.378;2023-11-19T06:30:29;9.50;99.90
28177;DHT22;15461;41.652;9.378;2023-11-19T06:32:56;9.50;99.90
28177;DHT22;15461;41.652;9.378;2023-11-19T06:35:22;9.60;99.90
28177;DHT22;15461;41.652;9.378;2023-11-19T06:37:48;9.60;99.90
28177;DHT22;15461;41.652;9.378;2023-11-19T06:40:14;9.60;99.90
28177;DHT22;15461;41.652;9.378;2023-11-19T06:42:41;9.70;99.90
28177;DHT22;15461;41.652;9.378;2023-11-19T06:45:07;9.70;99.90
28177;DHT22;15461;41.652;9.378;2023-11-19T06:47:33;9.70;99.90
28177;DHT22;15461;41.652;9.378;2023-11-19T06:49:58;9.80;99.90
28177;DHT22;15461;41.652;9.378;2023-11-19T06:52:24;9.80;99.90
28177;DHT22;15461;41.652;9.378;2023-11-19T06:54:50;9.90;99.90
28177;DHT22;15461;41.652;9.378;2023-11-19T06:57:16;10.00;99.90
28177;DHT22;15461;41.652;9.378;2023-11-19T06:59:42;10.10;99.90
28177;DHT22;15461;41.652;9.378;2023-11-19T07:02:08;10.10;99.90
28177;DHT22;15461;41.652;9.378;2023-11-19T07:04:34;10.20;99.90
28177;DHT22;15461;41.652;9.378;2023-11-19T07:07:00;10.30;99.90
28177;DHT22;15461;41.652;9.378;2023-11-19T07:09:26;10.40;99.90
28177;DHT22;15461;41.652;9.378;2023-11-19T07:11:52;10.50;99.90
28177;DHT22;15461;41.652;9.378;2023-11-19T07:14:19;10.70;99.90
28177;DHT22;15461;41.652;9.378;2023-11-19T07:16:45;10.70;99.90
28177;DHT22;15461;41.652;9.378;2023-11-19T07:19:12;10.80;99.90
28177;DHT22;15461;41.652;9.378;2023-11-19T07:21:41;11.00;99.90
28177;DHT22;15461;41.652;9.378;2023-11-19T07:24:10;11.10;99.90
28177;DHT22;15461;41.652;9.378;2023-11-19T07:26:36;11.20;99.90
28177;DHT22;15461;41.652;9.378;2023-11-19T07:29:06;11.40;99.90
28177;DHT22;15461;41.652;9.378;2023-11-19T07:31:33;11.50;99.90
28177;DHT22;15461;41.652;9.378;2023-11-19T07:33:58;11.70;99.90
28177;DHT22;15461;41.652;9.378;2023-11-19T07:36:24;11.80;99.90
28177;DHT22;15461;41.652;9.378;2023-11-19T07:38:50;12.00;99.90
28177;DHT22;15461;41.652;9.378;2023-11-19T07:41:16;12.20;99.90
28177;DHT22;15461;41.652;9.378;2023-11-19T07:43:45;12.30;99.90
28177;DHT22;15461;41.652;9.378;2023-11-19T07:46:12;12.60;99.90
28177;DHT22;15461;41.652;9.378;2023-11-19T07:48:39;12.70;99.90
28177;DHT22;15461;41.652;9.378;2023-11-19T07:51:05;12.90;99.90
28177;DHT22;15461;41.652;9.378;2023-11-19T07:53:31;13.10;99.90
28177;DHT22;15461;41.652;9.378;2023-11-19T07:55:58;13.30;99.90
28177;DHT22;15461;41.652;9.378;2023-11-19T07:58:25;13.40;99.90
28177;DHT22;15461;41.652;9.378;2023-11-19T08:00:51;13.60;99.90
28177;DHT22;15461;41.652;9.378;2023-11-19T08:03:17;13.80;99.90
28177;DHT22;15461;41.652;9.378;2023-11-19T08:05:45;14.00;99.90
28177;DHT22;15461;41.652;9.378;2023-11-19T08:08:12;14.20;99.90
28177;DHT22;15461;41.652;9.378;2023-11-19T08:10:37;14.40;99.90
28177;DHT22;15461;41.652;9.378;2023-11-19T08:13:03;14.60;99.90
28177;DHT22;15461;41.652;9.378;2023-11-19T08:15:29;14.70;99.90
28177;DHT22;15461;41.652;9.378;2023-11-19T08:17:55;14.90;99.90
28177;DHT22;15461;41.652;9.378;2023-11-19T08:20:22;15.00;99.90
28177;DHT22;15461;41.652;9.378;2023-11-19T08:22:47;15.10;99.90
28177;DHT22;15461;41.652;9.378;2023-11-19T08:25:14;15.10;99.90
28177;DHT22;15461;41.652;9.378;2023-11-19T08:27:39;15.30;99.90
28177;DHT22;15461;41.652;9.378;2023-11-19T08:30:06;15.30;99.90
28177;DHT22;15461;41.652;9.378;2023-11-19T08:32:32;15.50;99.90
28177;DHT22;15461;41.652;9.378;2023-11-19T08:34:58;15.60;99.90
28177;DHT22;15461;41.652;9.378;2023-11-19T08:37:24;15.70;99.90
28177;DHT22;15461;41.652;9.378;2023-11-19T08:39:50;15.80;99.90
28177;DHT22;15461;41.652;9.378;2023-11-19T08:42:16;15.90;99.90
28177;DHT22;15461;41.652;9.378;2023-11-19T08:44:43;16.00;99.90
28177;DHT22;15461;41.652;9.378;2023-11-19T08:47:12;16.10;99.90
28177;DHT22;15461;41.652;9.378;2023-11-19T08:49:39;16.30;99.90
28177;DHT22;15461;41.652;9.378;2023-11-19T08:52:05;16.30;99.90
28177;DHT22;15461;41.652;9.378;2023-11-19T08:54:34;16.40;99.90
28177;DHT22;15461;41.652;9.378;2023-11-19T08:57:00;16.50;99.90
28177;DHT22;15461;41.652;9.378;2023-11-19T08:59:26;16.60;99.90
28177;DHT22;15461;41.652;9.378;2023-11-19T09:01:51;16.60;99.90
28177;DHT22;15461;41.652;9.378;2023-11-19T09:04:17;16.60;99.90
28177;DHT22;15461;41.652;9.378;2023-11-19T09:06:43;16.70;99.90
28177;DHT22;15461;41.652;9.378;2023-11-19T09:09:09;16.80;99.90
28177;DHT22;15461;41.652;9.378;2023-11-19T09:11:35;16.70;99.90
28177;DHT22;15461;41.652;9.378;2023-11-19T09:14:02;16.80;99.90
28177;DHT22;15461;41.652;9.378;2023-11-19T09:16:28;16.80;99.90
28177;DHT22;15461;41.652;9.378;2023-11-19T09:18:54;16.90;99.90
28177;DHT22;15461;41.652;9.378;2023-11-19T09:21:19;16.90;99.90
28177;DHT22;15461;41.652;9.378;2023-11-19T09:23:45;16.90;99.90
28177;DHT22;15461;41.652;9.378;2023-11-19T09:26:13;16.90;99.90
28177;DHT22;15461;41.652;9.378;2023-11-19T09:28:39;16.90;99.90
28177;DHT22;15461;41.652;9.378;2023-11-19T09:31:18;16.90;99.90
28177;DHT22;15461;41.652;9.378;2023-11-19T09:33:44;17.00;99.90
28177;DHT22;15461;41.652;9.378;2023-11-19T09:36:12;17.10;99.90
28177;DHT22;15461;41.652;9.378;2023-11-19T09:38:45;17.10;99.90
28177;DHT22;15461;41.652;9.378;2023-11-19T09:41:11;17.10;99.90
28177;DHT22;15461;41.652;9.378;2023-11-19T09:43:42;17.10;99.90
28177;DHT22;15461;41.652;9.378;2023-11-19T09:46:13;17.10;99.90
28177;DHT22;15461;41.652;9.378;2023-11-19T09:48:41;17.10;99.90
28177;DHT22;15461;41.652;9.378;2023-11-19T09:51:11;17.10;99.90
28177;DHT22;15461;41.652;9.378;2023-11-19T09:53:37;17.10;99.90
28177;DHT22;15461;41.652;9.378;2023-11-19T09:56:05;17.10;99.90
28177;DHT22;15461;41.652;9.378;2023-11-19T09:58:31;17.10;99.90
28177;DHT22;15461;41.652;9.378;2023-11-19T10:00:58;17.10;99.90
28177;DHT22;15461;41.652;9.378;2023-11-19T10:03:32;17.10;99.90
28177;DHT22;15461;41.652;9.378;2023-11-19T10:05:59;17.10;99.90
28177;DHT22;15461;41.652;9.378;2023-11-19T10:08:26;17.10;99.90
28177;DHT22;15461;41.652;9.378;2023-11-19T10:10:51;17.10;99.90
28177;DHT22;15461;41.652;9.378;2023-11-19T10:13:18;17.10;99.90
28177;DHT22;15461;41.652;9.378;2023-11-19T10:15:43;17.20;99.90
28177;DHT22;15461;41.652;9.378;2023-11-19T10:18:09;17.20;99.90
28177;DHT22;15461;41.652;9.378;2023-11-19T10:20:41;17.20;99.90
28177;DHT22;15461;41.652;9.378;2023-11-19T10:23:07;17.20;99.90
28177;DHT22;15461;41.652;9.378;2023-11-19T10:25:34;17.20;99.90
28177;DHT22;15461;41.652;9.378;2023-11-19T10:28:00;17.30;99.90
28177;DHT22;15461;41.652;9.378;2023-11-19T10:30:30;17.30;99.90
28177;DHT22;15461;41.652;9.378;2023-11-19T10:33:02;17.30;99.90
28177;DHT22;15461;41.652;9.378;2023-11-19T10:35:28;17.30;99.90
28177;DHT22;15461;41.652;9.378;2023-11-19T10:37:54;17.40;99.90
28177;DHT22;15461;41.652;9.378;2023-11-19T10:40:20;17.40;99.90
28177;DHT22;15461;41.652;9.378;2023-11-19T10:42:46;17.40;99.90
28177;DHT22;15461;41.652;9.378;2023-11-19T10:45:24;17.50;99.90
28177;DHT22;15461;41.652;9.378;2023-11-19T10:47:51;17.50;99.90
28177;DHT22;15461;41.652;9.378;2023-11-19T10:50:18;17.60;99.90
28177;DHT22;15461;41.652;9.378;2023-11-19T10:52:44;17.50;99.90
28177;DHT22;15461;41.652;9.378;2023-11-19T10:55:15;17.60;99.90
28177;DHT22;15461;41.652;9.378;2023-11-19T10:57:45;17.50;99.90
28177;DHT22;15461;41.652;9.378;2023-11-19T11:00:15;17.50;99.90
28177;DHT22;15461;41.652;9.378;2023-11-19T11:02:45;17.50;99.90
28177;DHT22;15461;41.652;9.378;2023-11-19T11:05:16;17.40;99.90
28177;DHT22;15461;41.652;9.378;2023-11-19T11:07:44;17.50;99.90
28177;DHT22;15461;41.652;9.378;2023-11-19T11:10:11;17.50;99.90
28177;DHT22;15461;41.652;9.378;2023-11-19T11:12:40;17.50;99.90
28177;DHT22;15461;41.652;9.378;2023-11-19T11:15:07;17.50;99.90
28177;DHT22;15461;41.652;9.378;2023-11-19T11:17:34;17.50;99.90
28177;DHT22;15461;41.652;9.378;2023-11-19T11:20:00;17.60;99.90
28177;DHT22;15461;41.652;9.378;2023-11-19T11:22:28;17.60;99.90
28177;DHT22;15461;41.652;9.378;2023-11-19T11:25:11;17.60;99.90
28177;DHT22;15461;41.652;9.378;2023-11-19T11:36:13;17.60;99.90
28177;DHT22;15461;41.652;9.378;2023-11-19T11:38:43;17.60;99.90
28177;DHT22;15461;41.652;9.378;2023-11-19T11:41:23;17.70;99.90
28177;DHT22;15461;41.652;9.378;2023-11-19T11:43:54;17.70;99.90
28177;DHT22;15461;41.652;9.378;2023-11-19T11:49:01;17.60;99.90
28177;DHT22;15461;41.652;9.378;2023-11-19T11:57:07;17.70;99.90
28177;DHT22;15461;41.652;9.378;2023-11-19T11:59:50;17.70;99.90
28177;DHT22;15461;41.652;9.378;2023-11-19T12:02:20;17.80;99.90
28177;DHT22;15461;41.652;9.378;2023-11-19T12:04:51;17.80;99.90
28177;DHT22;15461;41.652;9.378;2023-11-19T12:07:26;17.80;99.90
28177;DHT22;15461;41.652;9.378;2023-11-19T12:09:56;17.90;99.90
28177;DHT22;15461;41.652;9.378;2023-11-19T12:12:32;17.90;99.90
28177;DHT22;15461;41.652;9.378;2023-11-19T12:20:00;17.90;99.90
28177;DHT22;15461;41.652;9.378;2023-11-19T12:22:26;17.80;99.90
28177;DHT22;15461;41.652;9.378;2023-11-19T12:24:55;17.80;99.90
28177;DHT22;15461;41.652;9.378;2023-11-19T12:27:22;17.80;99.90
28177;DHT22;15461;41.652;9.378;2023-11-19T12:29:48;17.90;99.90
28177;DHT22;15461;41.652;9.378;2023-11-19T12:32:14;17.90;99.90
28177;DHT22;15461;41.652;9.378;2023-11-19T12:34:40;17.90;99.90
28177;DHT22;15461;41.652;9.378;2023-11-19T12:37:06;17.90;99.90
28177;DHT22;15461;41.652;9.378;2023-11-19T12:39:32;17.80;99.90
28177;DHT22;15461;41.652;9.378;2023-11-19T12:41:58;17.90;99.90
28177;DHT22;15461;41.652;9.378;2023-11-19T12:44:27;17.90;99.90
28177;DHT22;15461;41.652;9.378;2023-11-19T12:49:28;17.80;99.90
28177;DHT22;15461;41.652;9.378;2023-11-19T12:51:54;17.90;99.90
28177;DHT22;15461;41.652;9.378;2023-11-19T12:54:19;18.00;99.90
28177;DHT22;15461;41.652;9.378;2023-11-19T12:56:54;18.00;99.90
28177;DHT22;15461;41.652;9.378;2023-11-19T12:59:20;18.00;99.90
28177;DHT22;15461;41.652;9.378;2023-11-19T13:04:21;18.00;99.90
28177;DHT22;15461;41.652;9.378;2023-11-19T13:06:47;18.10;99.90
28177;DHT22;15461;41.652;9.378;2023-11-19T13:09:26;18.10;99.90
28177;DHT22;15461;41.652;9.378;2023-11-19T13:11:53;18.10;99.90
28177;DHT22;15461;41.652;9.378;2023-11-19T13:14:20;18.10;99.90
28177;DHT22;15461;41.652;9.378;2023-11-19T13:16:45;18.10;99.90
28177;DHT22;15461;41.652;9.378;2023-11-19T13:19:13;18.10;99.90
28177;DHT22;15461;41.652;9.378;2023-11-19T13:21:39;18.10;99.90
28177;DHT22;15461;41.652;9.378;2023-11-19T13:24:06;18.20;99.90
28177;DHT22;15461;41.652;9.378;2023-11-19T13:26:32;18.20;99.90
28177;DHT22;15461;41.652;9.378;2023-11-19T13:28:58;18.20;99.90
28177;DHT22;15461;41.652;9.378;2023-11-19T13:31:23;18.10;99.90
28177;DHT22;15461;41.652;9.378;2023-11-19T13:33:49;18.10;99.90
28177;DHT22;15461;41.652;9.378;2023-11-19T13:36:15;18.10;99.90
28177;DHT22;15461;41.652;9.378;2023-11-19T13:38:41;18.20;99.90
28177;DHT22;15461;41.652;9.378;2023-11-19T13:41:07;18.20;99.90
28177;DHT22;15461;41.652;9.378;2023-11-19T13:43:35;18.20;99.90
28177;DHT22;15461;41.652;9.378;2023-11-19T13:46:02;18.30;99.90
28177;DHT22;15461;41.652;9.378;2023-11-19T13:48:28;18.30;99.90
28177;DHT22;15461;41.652;9.378;2023-11-19T13:50:55;18.30;99.90
28177;DHT22;15461;41.652;9.378;2023-11-19T13:53:21;18.40;99.90
28177;DHT22;15461;41.652;9.378;2023-11-19T13:55:47;18.40;99.90
28177;DHT22;15461;41.652;9.378;2023-11-19T13:58:15;18.60;99.90
28177;DHT22;15461;41.652;9.378;2023-11-19T14:00:42;18.50;99.90
28177;DHT22;15461;41.652;9.378;2023-11-19T14:03:09;18.40;99.90
28177;DHT22;15461;41.652;9.378;2023-11-19T14:05:38;18.40;99.90
28177;DHT22;15461;41.652;9.378;2023-11-19T14:08:06;18.40;99.90
28177;DHT22;15461;41.652;9.378;2023-11-19T14:10:39;18.20;99.90
28177;DHT22;15461;41.652;9.378;2023-11-19T14:13:06;18.20;99.90
28177;DHT22;15461;41.652;9.378;2023-11-19T14:15:32;18.30;99.90
28177;DHT22;15461;41.652;9.378;2023-11-19T14:17:58;18.40;99.90
28177;DHT22;15461;41.652;9.378;2023-11-19T14:20:24;18.50;99.90
28177;DHT22;15461;41.652;9.378;2023-11-19T14:22:51;18.40;99.90
28177;DHT22;15461;41.652;9.378;2023-11-19T14:25:18;18.40;99.90
28177;DHT22;15461;41.652;9.378;2023-11-19T14:27:44;18.40;99.90
28177;DHT22;15461;41.652;9.378;2023-11-19T14:30:12;18.20;99.90
28177;DHT22;15461;41.652;9.378;2023-11-19T14:32:44;18.20;99.90
28177;DHT22;15461;41.652;9.378;2023-11-19T14:35:11;18.30;99.90
28177;DHT22;15461;41.652;9.378;2023-11-19T14:37:38;18.30;99.90
28177;DHT22;15461;41.652;9.378;2023-11-19T14:40:04;18.40;99.90
28177;DHT22;15461;41.652;9.378;2023-11-19T14:42:31;18.20;99.90
28177;DHT22;15461;41.652;9.378;2023-11-19T14:44:57;18.20;99.90
28177;DHT22;15461;41.652;9.378;2023-11-19T14:47:23;18.20;99.90
28177;DHT22;15461;41.652;9.378;2023-11-19T14:49:49;18.20;99.90
28177;DHT22;15461;41.652;9.378;2023-11-19T14:52:15;18.20;99.90
28177;DHT22;15461;41.652;9.378;2023-11-19T14:54:41;18.20;99.90
28177;DHT22;15461;41.652;9.378;2023-11-19T14:57:07;18.20;99.90
28177;DHT22;15461;41.652;9.378;2023-11-19T14:59:37;18.10;99.90
28177;DHT22;15461;41.652;9.378;2023-11-19T15:02:03;18.10;99.90
28177;DHT22;15461;41.652;9.378;2023-11-19T15:04:29;18.00;99.90
28177;DHT22;15461;41.652;9.378;2023-11-19T15:06:59;17.80;99.90
28177;DHT22;15461;41.652;9.378;2023-11-19T15:09:25;17.70;99.90
28177;DHT22;15461;41.652;9.378;2023-11-19T15:11:54;17.60;99.90
28177;DHT22;15461;41.652;9.378;2023-11-19T15:14:20;17.50;99.90
28177;DHT22;15461;41.652;9.378;2023-11-19T15:16:46;17.40;99.90
28177;DHT22;15461;41.652;9.378;2023-11-19T15:19:13;17.40;99.90
28177;DHT22;15461;41.652;9.378;2023-11-19T15:21:40;17.30;99.90
28177;DHT22;15461;41.652;9.378;2023-11-19T15:24:06;17.40;99.90
28177;DHT22;15461;41.652;9.378;2023-11-19T15:26:36;17.30;99.90
28177;DHT22;15461;41.652;9.378;2023-11-19T15:29:03;17.30;99.90
28177;DHT22;15461;41.652;9.378;2023-11-19T15:31:29;17.30;99.90
28177;DHT22;15461;41.652;9.378;2023-11-19T15:33:56;17.20;99.90
28177;DHT22;15461;41.652;9.378;2023-11-19T15:36:21;17.10;99.90
28177;DHT22;15461;41.652;9.378;2023-11-19T15:38:47;17.10;99.90
28177;DHT22;15461;41.652;9.378;2023-11-19T15:41:13;17.10;99.90
28177;DHT22;15461;41.652;9.378;2023-11-19T15:43:39;17.00;99.90
28177;DHT22;15461;41.652;9.378;2023-11-19T15:46:06;16.90;99.90
28177;DHT22;15461;41.652;9.378;2023-11-19T15:48:33;16.90;99.90
28177;DHT22;15461;41.652;9.378;2023-11-19T15:50:59;16.80;99.90
28177;DHT22;15461;41.652;9.378;2023-11-19T15:53:25;16.70;99.90
28177;DHT22;15461;41.652;9.378;2023-11-19T15:55:51;16.60;99.90
28177;DHT22;15461;41.652;9.378;2023-11-19T15:58:19;16.50;99.90
28177;DHT22;15461;41.652;9.378;2023-11-19T16:00:45;16.40;99.90